BVG0087 EGBK-EGHR
Flight info
| Callsign | BVG0087 |
|---|---|
| Flight time | 0h 34m |
| Altitude | 9000 |
| Route | DTY M605 SILVA M183 CPT N859 GWC |
| Aircraft | M20T/L-SDGRY/S |
Departure
| Time | 2026-04-28 22:30 |
|---|---|
| Airport | Sywell Aerodrome (EGBK) |
Arrival
| Time | 2026-04-28 23:05 |
|---|---|
| Airport | Goodwood Aerodrome (EGHR) |
| Time | Latitude | Longitude | Altitude | Speed | Heading |
|---|---|---|---|---|---|
| 2026-04-28 22:25 | 52.30904 | -0.79063 | 423 ft | 0 kts | 200° |
| 2026-04-28 22:29 | 52.30903 | -0.79064 | 423 ft | 2 kts | 200° |
| 2026-04-28 22:29 | 52.30788 | -0.79134 | 423 ft | 34 kts | 200° |
| 2026-04-28 22:29 | 52.30451 | -0.79336 | 423 ft | 70 kts | 200° |
| 2026-04-28 22:29 | 52.29930 | -0.79648 | 571 ft | 81 kts | 200° |
| 2026-04-28 22:30 | 52.29456 | -0.80153 | 729 ft | 90 kts | 242° |
| 2026-04-28 22:30 | 52.29309 | -0.81202 | 922 ft | 97 kts | 259° |
| 2026-04-28 22:30 | 52.29149 | -0.82320 | 1079 ft | 104 kts | 252° |
| 2026-04-28 22:30 | 52.28857 | -0.83448 | 1232 ft | 112 kts | 243° |
| 2026-04-28 22:31 | 52.28473 | -0.84593 | 1379 ft | 118 kts | 240° |
| 2026-04-28 22:31 | 52.28041 | -0.85765 | 1520 ft | 124 kts | 238° |
| 2026-04-28 22:31 | 52.27570 | -0.86998 | 1660 ft | 130 kts | 238° |
| 2026-04-28 22:31 | 52.27088 | -0.88246 | 1794 ft | 134 kts | 238° |
| 2026-04-28 22:32 | 52.26579 | -0.89552 | 1927 ft | 137 kts | 237° |
| 2026-04-28 22:32 | 52.26069 | -0.90861 | 2093 ft | 136 kts | 238° |
| 2026-04-28 22:32 | 52.25545 | -0.92203 | 2358 ft | 147 kts | 237° |
| 2026-04-28 22:32 | 52.24991 | -0.93619 | 2570 ft | 158 kts | 237° |
| 2026-04-28 22:33 | 52.24363 | -0.95220 | 2685 ft | 162 kts | 237° |
| 2026-04-28 22:33 | 52.23768 | -0.96737 | 2879 ft | 155 kts | 237° |
| 2026-04-28 22:33 | 52.23201 | -0.98186 | 3068 ft | 150 kts | 237° |
| 2026-04-28 22:33 | 52.22647 | -0.99600 | 3260 ft | 145 kts | 237° |
| 2026-04-28 22:34 | 52.22108 | -1.00975 | 3453 ft | 142 kts | 237° |
| 2026-04-28 22:34 | 52.21583 | -1.02311 | 3645 ft | 140 kts | 237° |
| 2026-04-28 22:34 | 52.21063 | -1.03636 | 3840 ft | 138 kts | 238° |
| 2026-04-28 22:34 | 52.20549 | -1.04941 | 4035 ft | 136 kts | 238° |
| 2026-04-28 22:35 | 52.20045 | -1.06223 | 4230 ft | 135 kts | 239° |
| 2026-04-28 22:35 | 52.19533 | -1.07523 | 4430 ft | 134 kts | 239° |
| 2026-04-28 22:35 | 52.19035 | -1.08789 | 4627 ft | 133 kts | 240° |
| 2026-04-28 22:35 | 52.18532 | -1.10066 | 4828 ft | 132 kts | 240° |
| 2026-04-28 22:36 | 52.17884 | -1.11140 | 5018 ft | 137 kts | 207° |
| 2026-04-28 22:36 | 52.16946 | -1.11204 | 5228 ft | 139 kts | 173° |
| 2026-04-28 22:36 | 52.16011 | -1.10863 | 5430 ft | 139 kts | 169° |
| 2026-04-28 22:36 | 52.15076 | -1.10496 | 5628 ft | 139 kts | 171° |
| 2026-04-28 22:37 | 52.14135 | -1.10149 | 5828 ft | 139 kts | 173° |
| 2026-04-28 22:37 | 52.13186 | -1.09817 | 6031 ft | 138 kts | 174° |
| 2026-04-28 22:37 | 52.12248 | -1.09499 | 6232 ft | 138 kts | 175° |
| 2026-04-28 22:37 | 52.11310 | -1.09187 | 6434 ft | 137 kts | 176° |
| 2026-04-28 22:38 | 52.10392 | -1.08884 | 6633 ft | 136 kts | 177° |
| 2026-04-28 22:38 | 52.09448 | -1.08574 | 6836 ft | 136 kts | 177° |
| 2026-04-28 22:38 | 52.08541 | -1.08278 | 7031 ft | 135 kts | 177° |
| 2026-04-28 22:38 | 52.07608 | -1.07973 | 7232 ft | 135 kts | 177° |
| 2026-04-28 22:39 | 52.06698 | -1.07675 | 7429 ft | 135 kts | 177° |
| 2026-04-28 22:39 | 52.05780 | -1.07375 | 7628 ft | 134 kts | 177° |
| 2026-04-28 22:39 | 52.04861 | -1.07075 | 7828 ft | 134 kts | 177° |
| 2026-04-28 22:39 | 52.03944 | -1.06776 | 8027 ft | 134 kts | 177° |
| 2026-04-28 22:40 | 52.03036 | -1.06479 | 8225 ft | 134 kts | 177° |
| 2026-04-28 22:40 | 52.02123 | -1.06181 | 8424 ft | 134 kts | 177° |
| 2026-04-28 22:40 | 52.01201 | -1.05880 | 8626 ft | 134 kts | 177° |
| 2026-04-28 22:40 | 52.00297 | -1.05585 | 8813 ft | 135 kts | 178° |
| 2026-04-28 22:41 | 51.99356 | -1.05282 | 8952 ft | 139 kts | 177° |
| 2026-04-28 22:41 | 51.98382 | -1.04972 | 9007 ft | 149 kts | 177° |
| 2026-04-28 22:41 | 51.97323 | -1.04634 | 9014 ft | 160 kts | 176° |
| 2026-04-28 22:41 | 51.96195 | -1.04270 | 9011 ft | 169 kts | 175° |
| 2026-04-28 22:42 | 51.95016 | -1.03887 | 9007 ft | 175 kts | 175° |
| 2026-04-28 22:42 | 51.93798 | -1.03488 | 9005 ft | 180 kts | 175° |
| 2026-04-28 22:42 | 51.92563 | -1.03084 | 9003 ft | 183 kts | 175° |
| 2026-04-28 22:42 | 51.91308 | -1.02673 | 9002 ft | 185 kts | 175° |
| 2026-04-28 22:43 | 51.90030 | -1.02255 | 9002 ft | 187 kts | 175° |
| 2026-04-28 22:43 | 51.88756 | -1.01840 | 9001 ft | 188 kts | 175° |
| 2026-04-28 22:43 | 51.87474 | -1.01422 | 9001 ft | 189 kts | 175° |
| 2026-04-28 22:43 | 51.86192 | -1.01011 | 9000 ft | 189 kts | 176° |
| 2026-04-28 22:44 | 51.84910 | -1.01035 | 9004 ft | 182 kts | 195° |
| 2026-04-28 22:44 | 51.83680 | -1.01481 | 9002 ft | 180 kts | 201° |
| 2026-04-28 22:44 | 51.82483 | -1.02072 | 9001 ft | 179 kts | 204° |
| 2026-04-28 22:44 | 51.81302 | -1.02719 | 9013 ft | 181 kts | 205° |
| 2026-04-28 22:45 | 51.80082 | -1.03426 | 8989 ft | 190 kts | 205° |
| 2026-04-28 22:45 | 51.78849 | -1.04153 | 8980 ft | 187 kts | 206° |
| 2026-04-28 22:45 | 51.77637 | -1.04870 | 8994 ft | 184 kts | 206° |
| 2026-04-28 22:45 | 51.76449 | -1.05580 | 8998 ft | 182 kts | 206° |
| 2026-04-28 22:46 | 51.75251 | -1.06299 | 8999 ft | 181 kts | 206° |
| 2026-04-28 22:46 | 51.74064 | -1.07014 | 8999 ft | 181 kts | 206° |
| 2026-04-28 22:46 | 51.72886 | -1.07724 | 9000 ft | 180 kts | 206° |
| 2026-04-28 22:46 | 51.71711 | -1.08433 | 9000 ft | 180 kts | 206° |
| 2026-04-28 22:47 | 51.70557 | -1.09129 | 9000 ft | 180 kts | 206° |
| 2026-04-28 22:47 | 51.69396 | -1.09829 | 9000 ft | 180 kts | 206° |
| 2026-04-28 22:47 | 51.68250 | -1.10520 | 9000 ft | 179 kts | 206° |
| 2026-04-28 22:47 | 51.67054 | -1.11240 | 9000 ft | 179 kts | 206° |
| 2026-04-28 22:48 | 51.65909 | -1.11929 | 9000 ft | 179 kts | 206° |
| 2026-04-28 22:48 | 51.64710 | -1.12651 | 9000 ft | 179 kts | 206° |
| 2026-04-28 22:48 | 51.63566 | -1.13338 | 9000 ft | 179 kts | 206° |
| 2026-04-28 22:48 | 51.62385 | -1.14048 | 9000 ft | 179 kts | 206° |
| 2026-04-28 22:49 | 51.61212 | -1.14753 | 9000 ft | 179 kts | 206° |
| 2026-04-28 22:49 | 51.60039 | -1.15457 | 9000 ft | 179 kts | 206° |
| 2026-04-28 22:49 | 51.58868 | -1.16159 | 9000 ft | 179 kts | 206° |
| 2026-04-28 22:49 | 51.57690 | -1.16866 | 9000 ft | 179 kts | 206° |
| 2026-04-28 22:50 | 51.56527 | -1.17562 | 9000 ft | 179 kts | 206° |
| 2026-04-28 22:50 | 51.55379 | -1.18250 | 9000 ft | 179 kts | 206° |
| 2026-04-28 22:50 | 51.54195 | -1.18958 | 9000 ft | 179 kts | 206° |
| 2026-04-28 22:50 | 51.53030 | -1.19655 | 9000 ft | 179 kts | 206° |
| 2026-04-28 22:51 | 51.51856 | -1.20358 | 9000 ft | 179 kts | 206° |
| 2026-04-28 22:51 | 51.50698 | -1.21049 | 8999 ft | 178 kts | 206° |
| 2026-04-28 22:51 | 51.49471 | -1.21450 | 8998 ft | 183 kts | 184° |
| 2026-04-28 22:51 | 51.48212 | -1.21061 | 9003 ft | 187 kts | 169° |
| 2026-04-28 22:52 | 51.46982 | -1.20337 | 9001 ft | 188 kts | 163° |
| 2026-04-28 22:52 | 51.45783 | -1.19500 | 9000 ft | 188 kts | 162° |
| 2026-04-28 22:52 | 51.44601 | -1.18631 | 9000 ft | 188 kts | 161° |
| 2026-04-28 22:52 | 51.43416 | -1.17749 | 9000 ft | 187 kts | 161° |
| 2026-04-28 22:53 | 51.42227 | -1.16865 | 9000 ft | 187 kts | 161° |
| 2026-04-28 22:53 | 51.41059 | -1.16001 | 9000 ft | 187 kts | 161° |
| 2026-04-28 22:53 | 51.39877 | -1.15130 | 9000 ft | 186 kts | 161° |
| 2026-04-28 22:53 | 51.38693 | -1.14261 | 9000 ft | 186 kts | 161° |
| 2026-04-28 22:54 | 51.37512 | -1.13393 | 9000 ft | 186 kts | 161° |
| 2026-04-28 22:54 | 51.36331 | -1.12526 | 9000 ft | 186 kts | 161° |
| 2026-04-28 22:54 | 51.35171 | -1.11674 | 9000 ft | 186 kts | 161° |
| 2026-04-28 22:54 | 51.33993 | -1.10810 | 9000 ft | 186 kts | 161° |
| 2026-04-28 22:55 | 51.32821 | -1.09950 | 9000 ft | 186 kts | 161° |
| 2026-04-28 22:55 | 51.31638 | -1.09083 | 9000 ft | 186 kts | 161° |
| 2026-04-28 22:55 | 51.30465 | -1.08223 | 9000 ft | 186 kts | 161° |
| 2026-04-28 22:55 | 51.29282 | -1.07358 | 9000 ft | 186 kts | 161° |
| 2026-04-28 22:56 | 51.28097 | -1.06490 | 9000 ft | 186 kts | 161° |
| 2026-04-28 22:56 | 51.26927 | -1.05635 | 9000 ft | 186 kts | 161° |
| 2026-04-28 22:56 | 51.25752 | -1.04782 | 9000 ft | 186 kts | 162° |
| 2026-04-28 22:56 | 51.24573 | -1.03936 | 9000 ft | 186 kts | 162° |
| 2026-04-28 22:57 | 51.23390 | -1.03091 | 8921 ft | 190 kts | 162° |
| 2026-04-28 22:57 | 51.22145 | -1.02208 | 8777 ft | 197 kts | 162° |
| 2026-04-28 22:57 | 51.20863 | -1.01301 | 8518 ft | 206 kts | 161° |
| 2026-04-28 22:57 | 51.19545 | -1.00368 | 8250 ft | 212 kts | 161° |
| 2026-04-28 22:58 | 51.18182 | -0.99399 | 7978 ft | 216 kts | 161° |
| 2026-04-28 22:58 | 51.16798 | -0.98414 | 7704 ft | 218 kts | 161° |
| 2026-04-28 22:58 | 51.15415 | -0.97429 | 7431 ft | 219 kts | 161° |
| 2026-04-28 22:58 | 51.14032 | -0.96445 | 7156 ft | 218 kts | 161° |
| 2026-04-28 22:59 | 51.12659 | -0.95468 | 6874 ft | 217 kts | 161° |
| 2026-04-28 22:59 | 51.11272 | -0.94485 | 6572 ft | 217 kts | 161° |
| 2026-04-28 22:59 | 51.09896 | -0.93511 | 6292 ft | 214 kts | 160° |
| 2026-04-28 22:59 | 51.08554 | -0.92561 | 5990 ft | 211 kts | 159° |
| 2026-04-28 23:00 | 51.07212 | -0.91613 | 5685 ft | 207 kts | 158° |
| 2026-04-28 23:00 | 51.05914 | -0.90698 | 5386 ft | 205 kts | 158° |
| 2026-04-28 23:00 | 51.04619 | -0.89784 | 5086 ft | 203 kts | 157° |
| 2026-04-28 23:00 | 51.03337 | -0.88880 | 4785 ft | 200 kts | 156° |
| 2026-04-28 23:01 | 51.02085 | -0.87999 | 4483 ft | 194 kts | 156° |
| 2026-04-28 23:01 | 51.00871 | -0.87143 | 4182 ft | 189 kts | 156° |
| 2026-04-28 23:01 | 50.99666 | -0.86294 | 3875 ft | 184 kts | 156° |
| 2026-04-28 23:01 | 50.98524 | -0.85490 | 3578 ft | 180 kts | 156° |
| 2026-04-28 23:02 | 50.97389 | -0.84692 | 3276 ft | 177 kts | 156° |
| 2026-04-28 23:02 | 50.96270 | -0.83905 | 2969 ft | 175 kts | 156° |
| 2026-04-28 23:02 | 50.95149 | -0.83118 | 2609 ft | 176 kts | 156° |
| 2026-04-28 23:02 | 50.94029 | -0.82333 | 2235 ft | 176 kts | 156° |
| 2026-04-28 23:03 | 50.92941 | -0.81570 | 2121 ft | 166 kts | 156° |
| 2026-04-28 23:03 | 50.91958 | -0.80881 | 2005 ft | 146 kts | 156° |
| 2026-04-28 23:03 | 50.91067 | -0.80258 | 1780 ft | 135 kts | 156° |
| 2026-04-28 23:03 | 50.90209 | -0.79659 | 1418 ft | 137 kts | 156° |
| 2026-04-28 23:04 | 50.89325 | -0.79041 | 1043 ft | 139 kts | 156° |
| 2026-04-28 23:04 | 50.87556 | -0.77846 | 395 ft | 129 kts | 157° |
| 2026-04-28 23:04 | 50.86888 | -0.77205 | 275 ft | 100 kts | 143° |
| 2026-04-28 23:05 | 50.86384 | -0.76560 | 116 ft | 84 kts | 140° |
| 2026-04-28 23:05 | 50.86075 | -0.76073 | 114 ft | 44 kts | 124° |
| 2026-04-28 23:05 | 50.85936 | -0.75789 | 114 ft | 23 kts | 158° |
| 2026-04-28 23:05 | 50.85871 | -0.75834 | 114 ft | 1 kts | 221° |
| 2026-04-28 23:06 | 50.85823 | -0.75901 | 114 ft | 16 kts | 220° |
| 2026-04-28 23:06 | 50.85786 | -0.75897 | 114 ft | 0 kts | 127° |